メヘラーバード国際空港(テヘラン)の過去48時間の天気

メヘラーバード国際空港(テヘラン) (Tehran-Mehrabad)

現在時刻: 2/6 22:15 +0330 (2/6 18:45 UTC) 以下の時間は現地時間です。

過去48時間のMETAR気象情報
時間 風向 風速(m/s) 視程 気温(℃) 湿度(%) 気圧(hPa) 天気現象
6 22:00 北北東 4 10km以上 8 37 1015
6 21:30 2 10km以上 10 27 1015
6 21:00 南南東 3 10km以上 10 30 1015
6 20:30 南南東 3 10km以上 10 30 1015
6 20:00 東南東 3 10km以上 9 32 1015
6 19:30 静穏 0 8000m 9 34 1015
6 19:00 2 8000m 9 34 1015
6 18:30 2 9000m 9 37 1015
6 18:00 4 8000m 9 34 1014
6 17:30 2 10km以上 10 30 1013
6 17:00 南東 2 10km以上 10 27 1013
6 16:30 南東 2 10km以上 10 27 1014
6 16:00 2 10km以上 10 27 1015
6 15:30 3 10km以上 10 27 1015
6 15:00 南南東 3 10km以上 10 27 1015
6 14:30 南南東 2 10km以上 11 28 1015
6 14:00 南南東 3 10km以上 11 26 1016
6 13:30 3 10km以上 11 28 1016
6 13:00 3 10km以上 10 32 1016
6 12:30 4 10km以上 11 28 1017
6 12:00 南南東 3 10km以上 10 27 1017
6 11:30 南南東 3 10km以上 10 27 1017
6 11:00 南南東 5 10km以上 10 30 1017
6 10:30 東南東 3 10km以上 10 25 1018
6 10:00 南東 5 10km以上 10 25 1017
6 09:30 東南東 3 10km以上 10 25 1017
6 09:00 2 10km以上 9 29 1017
6 08:30 不定 1 10km以上 7 39 1017
6 08:00 静穏 0 10km以上 6 45 1017
6 07:30 静穏 0 10km以上 4 48 1017
6 07:00 静穏 0 10km以上 5 45 1016
6 06:30 静穏 0 10km以上 4 48 1016
6 06:00 静穏 0 10km以上 5 45 1016
6 05:30 静穏 0 10km以上 6 39 1016
6 05:00 東北東 2 10km以上 6 36 1016
6 04:30 東北東 2 10km以上 6 36 1016
6 04:00 北東 2 10km以上 6 39 1017
6 03:52 北東 2 10km以上 6 39 1017
6 03:30 北西 2 10km以上 5 42 1017
6 03:00 北西 2 10km以上 5 42 1017
6 02:30 北北西 2 10km以上 5 42 1017
6 02:00 北北西 2 10km以上 5 42 1017
6 01:52 北北西 2 10km以上 5 42 1017
6 01:30 北北西 2 10km以上 5 45 1016
6 01:00 北西 2 10km以上 5 42 1016
6 00:30 西北西 3 10km以上 4 45 1016
6 00:00 北西 3 10km以上 5 38 1016
5 23:30 北西 2 10km以上 7 31 1016
5 23:00 北北西 2 10km以上 8 29 1016
5 22:30 2 10km以上 7 31 1016
5 22:00 北北西 3 10km以上 8 29 1016
5 21:30 北北西 3 10km以上 8 29 1016
5 21:00 2 10km以上 8 29 1016
5 20:30 北北西 3 10km以上 8 29 1016
5 20:00 北北西 3 10km以上 8 29 1016
5 19:30 北北西 2 10km以上 8 29 1016
5 19:00 北北西 3 10km以上 8 31 1016
5 18:30 北北西 2 10km以上 8 31 1016
5 18:00 北北西 3 10km以上 8 29 1015
5 17:30 北北西 4 10km以上 9 27 1015
5 17:00 西北西 4 10km以上 9 25 1015
5 16:30 北西 3 10km以上 9 27 1014
5 16:00 西 5 10km以上 10 23 1014
5 15:30 西南西 6 10km以上 10 22 1014
5 15:00 西南西 6 10km以上 10 22 1014
5 14:30 南西 2 10km以上 10 20 1014
5 14:00 西 3 10km以上 10 22 1014
5 13:30 西 2 10km以上 9 21 1015
5 13:00 南西 4 8000m 8 23 1015
5 12:30 西 4 7000m 8 23 1015
5 12:00 南西 3 8000m 8 23 1016
5 11:30 西 3 8000m 8 23 1016
5 11:00 南西 3 8000m 7 24 1016
5 10:30 南西 2 10km以上 7 23 1016
5 10:00 静穏 0 10km以上 7 21 1016
5 09:30 静穏 0 10km以上 6 22 1016
5 09:00 南南西 2 10km以上 6 22 1016
5 08:30 西北西 2 10km以上 6 24 1016
5 08:00 北西 2 10km以上 5 26 1016
5 07:30 静穏 0 10km以上 3 30 1015
5 07:00 静穏 0 10km以上 2 32 1015
5 06:30 2 10km以上 3 30 1015
5 06:00 静穏 0 10km以上 2 32 1015
5 05:30 北北西 2 10km以上 2 32 1015
5 05:00 2 10km以上 3 32 1015
5 04:30 北西 2 10km以上 3 32 1015
5 04:00 静穏 0 10km以上 2 35 1015
5 03:30 静穏 0 10km以上 3 32 1015
5 03:00 静穏 0 10km以上 3 32 1015
5 02:30 静穏 0 10km以上 3 35 1015
5 02:00 静穏 0 10km以上 4 30 1015
5 01:30 静穏 0 10km以上 4 30 1015
5 01:00 北北西 2 10km以上 5 28 1015
5 00:30 西北西 2 10km以上 4 30 1015
5 00:00 静穏 0 10km以上 5 28 1015
4 23:30 3 10km以上 6 26 1016
4 23:00 2 10km以上 6 26 1016
4 22:30 静穏 0 10km以上 4 30 1016
OIII 061830Z 03008KT 9999 FEW035CB BKN100 08/M06 Q1015 A3000 RERA
OIII 061800Z 36004KT 9999 FEW040 BKN100 10/M08 Q1015 A3000 NOSIG
OIII 061730Z 15006KT 9999 FEW040 BKN100 10/M07 Q1015 A2999
OIII 061700Z 15006KT 9999 FEW040 BKN100 10/M07 Q1015 A2999 NOSIG
OIII 061630Z 11006KT 9999 FEW040 BKN100 09/M07 Q1015 A2998
OIII 061600Z 00000KT 8000 FEW040 BKN100 09/M06 Q1015 A3000 NOSIG
OIII 061530Z 17004KT 8000 SCT100 BKN180 09/M06 Q1015 A3000
OIII 061500Z 17004KT 9000 SCT100 BKN180 09/M05 Q1015 A2998 NOSIG
OIII 061430Z 17008KT 8000 FEW100 BKN180 09/M06 Q1014 A2995
OIII 061400Z 17004KT 9999 FEW035 SCT170 10/M07 Q1013 A2994 NOSIG
OIII 061330Z 14004KT 9999 FEW100 SCT180 10/M08 Q1013 A2993
OIII 061300Z 14004KT 9999 FEW100 SCT180 10/M08 Q1014 A2995 NOSIG
OIII 061230Z 17004KT 9999 FEW040 SCT090 BKN180 10/M08 Q1015 A2997
OIII 061200Z 17006KT 9999 FEW040 SCT090 BKN180 10/M08 Q1015 A2998 NOSIG
OIII 061130Z 16006KT 9999 FEW040 SCT090 BKN180 10/M08 Q1015 A2999
OIII 061100Z 16004KT 9999 FEW040 SCT090 BKN180 11/M07 Q1015 A2999 NOSIG
OIII 061030Z 15006KT 9999 FEW040 SCT090 BKN180 11/M08 Q1016 A3001
OIII 061000Z 18006KT 9999 FEW040 SCT100 BKN180 11/M07 Q1016 A3001 NOSIG
OIII 060930Z 17006KT 9999 FEW100 BKN180 10/M06 Q1016 A3002
OIII 060900Z 18008KT 9999 FEW100 BKN180 11/M07 Q1017 A3003 NOSIG
OIII 060830Z 16006KT 9999 FEW100 BKN190 10/M08 Q1017 A3004
OIII 060800Z 16006KT 9999 FEW100 BKN190 10/M08 Q1017 A3005 NOSIG
OIII 060730Z 16010KT 9999 FEW100 BKN190 10/M07 Q1017 A3006
OIII 060700Z 11006KT 9999 FEW110 BKN190 10/M09 Q1018 A3006 NOSIG
OIII 060630Z 13010KT 9999 FEW100 BKN190 10/M09 Q1017 A3005
OIII 060600Z 11006KT 9999 FEW100 BKN190 10/M09 Q1017 A3005 NOSIG
OIII 060530Z 09004KT 9999 SCT100 BKN180 09/M08 Q1017 A3005
OIII 060500Z VRB02KT 9999 SCT100 BKN180 07/M06 Q1017 A3005 NOSIG
OIII 060430Z 00000KT 9999 SCT100 BKN180 06/M05 Q1017 A3004
OIII 060400Z 00000KT 9999 SCT100 BKN180 04/M06 Q1017 A3004 NOSIG
OIII 060330Z 00000KT 9999 SCT100 BKN180 05/M06 Q1016 A3003
OIII 060300Z 00000KT 9999 SCT100 BKN180 04/M06 Q1016 A3003 NOSIG
OIII 060230Z 00000KT 9999 SCT100 BKN180 05/M06 Q1016 A3003
OIII 060200Z 00000KT 9999 SCT100 BKN180 06/M07 Q1016 A3003 NOSIG
OIII 060130Z 06004KT 9999 SCT100 BKN180 06/M08 Q1016 A3003
OIII 060100Z 06004KT 9999 SCT100 BKN180 06/M08 Q1016 A3003 NOSIG
OIII 060030Z 04004KT 9999 SCT100 BKN180 06/M07 Q1017 A3004
OIII 060022Z 04004KT 9999 SCT100 BKN180 06/M07 Q1017 A3004
OIII 060000Z 31004KT 9999 SCT100 BKN180 05/M07 Q1017 A3004 NOSIG
OIII 052330Z 32004KT 9999 SCT100 BKN190 05/M07 Q1017 A3004
OIII 052300Z 34004KT 9999 SCT100 BKN190 05/M07 Q1017 A3004 NOSIG
OIII 052230Z 33004KT 9999 SCT100 BKN190 05/M07 Q1017 A3004
OIII 052222Z 33004KT 9999 SCT100 BKN190 05/M07 Q1017 A3004
OIII 052200Z 34004KT 9999 SCT100 BKN190 05/M06 Q1016 A3002
OIII 052130Z 32004KT 9999 SCT100 BKN190 05/M07 Q1016 A3002
OIII 052100Z 29006KT 9999 SCT100 BKN190 04/M07 Q1016 A3002 NOSIG
OIII 052030Z 31006KT 9999 SCT100 BKN190 05/M08 Q1016 A3002
OIII 052000Z 32004KT 9999 FEW100 BKN190 07/M09 Q1016 A3002 NOSIG
OIII 051930Z 33004KT 9999 FEW100 BKN190 08/M09 Q1016 A3002
OIII 051900Z 35004KT 9999 FEW100 SCT190 07/M09 Q1016 A3002 NOSIG
OIII 051830Z 33006KT 9999 FEW100 SCT190 08/M09 Q1016 A3002
OIII 051800Z 33006KT 9999 FEW100 SCT190 08/M09 Q1016 A3002 NOSIG
OIII 051730Z 35004KT CAVOK 08/M09 Q1016 A3001
OIII 051700Z 33006KT CAVOK 08/M09 Q1016 A3001 NOSIG
OIII 051630Z 34006KT 9999 FEW100 SCT190 08/M09 Q1016 A3000
OIII 051600Z 34004KT 9999 FEW100 SCT190 08/M09 Q1016 A3000
OIII 051530Z 34006KT 9999 FEW100 SCT190 08/M08 Q1016 A3000
OIII 051500Z 33004KT 9999 FEW100 SCT190 08/M08 Q1016 A3000 NOSIG
OIII 051430Z 33006KT 9999 FEW040 SCT100 08/M09 Q1015 A2999
OIII 051400Z 33008KT 9999 FEW040 SCT100 09/M09 Q1015 A2998 NOSIG
OIII 051330Z 30008KT 9999 FEW040 SCT100 09/M10 Q1015 A2998
OIII 051300Z 32006KT 9999 FEW040 SCT100 09/M09 Q1014 A2997 NOSIG
OIII 051230Z 28010KT 9999 FEW040 SCT100 10/M10 Q1014 A2997
OIII 051200Z 24012KT 9999 FEW040 SCT100 10/M11 Q1014 A2997 NOSIG
OIII 051130Z 24012KT 9999 FEW040 SCT100 10/M11 Q1014 A2996
OIII 051100Z 23004KT 9999 FEW040 SCT100 10/M12 Q1014 A2997 NOSIG
OIII 051030Z 27006KT 9999 FEW040 SCT190 10/M11 Q1014 A2997
OIII 051000Z 28004KT 9999 FEW040 SCT110 BKN190 09/M12 Q1015 A2997 NOSIG
OIII 050930Z 23008KT 8000 FEW040 SCT110 BKN190 08/M12 Q1015 A2998
OIII 050900Z 27008KT 7000 FEW040 SCT110 BKN190 08/M12 Q1015 A2999 NOSIG
OIII 050830Z 23006KT 8000 FEW040 SCT100 BKN190 08/M12 Q1016 A3000
OIII 050800Z 26006KT 8000 SCT100 BKN190 08/M12 Q1016 A3002 NOSIG
OIII 050730Z 23006KT 8000 SCT100 BKN190 07/M12 Q1016 A3002
OIII 050700Z 23004KT 9999 SCT100 BKN190 07/M13 Q1016 A3003 NOSIG
OIII 050630Z 00000KT 9999 FEW100 BKN190 07/M14 Q1016 A3002
OIII 050600Z 00000KT 9999 FEW100 BKN190 06/M14 Q1016 A3002 NOSIG
OIII 050530Z 21004KT 9999 FEW100 SCT190 06/M14 Q1016 A3001
OIII 050500Z 29004KT 9999 FEW100 SCT190 06/M13 Q1016 A3001 NOSIG
OIII 050430Z 32004KT 9999 FEW110 BKN190 05/M13 Q1016 A3000
OIII 050400Z 00000KT 9999 FEW110 BKN190 03/M13 Q1015 A2999 NOSIG
OIII 050330Z 00000KT 9999 FEW110 SCT200 02/M13 Q1015 A2999
OIII 050300Z 35004KT CAVOK 03/M13 Q1015 A2999 NOSIG
OIII 050230Z 00000KT CAVOK 02/M13 Q1015 A2999
OIII 050200Z 33004KT CAVOK 02/M13 Q1015 A2999 NOSIG
OIII 050130Z 36004KT CAVOK 03/M12 Q1015 A2998
OIII 050100Z 32004KT 9999 FEW110 SCT200 03/M12 Q1015 A2998 NOSIG
OIII 050030Z 00000KT 9999 FEW110 SCT200 02/M12 Q1015 A32998
OIII 050000Z 00000KT 9999 FEW110 SCT200 03/M12 Q1015 A3000 NOSIG
OIII 042330Z 00000KT 9999 FEW110 SCT200 03/M12 Q1015 A3000
OIII 042300Z 00000KT 9999 FEW110 SCT200 03/M11 Q1015 A3000 NOSIG
OIII 042230Z 00000KT 9999 SCT120 BKN190 04/M12 Q1015 A3000
OIII 042200Z 00000KT 9999 SCT120 BKN190 04/M12 Q1015 A3000 NOSIG
OIII 042130Z 33004KT CAVOK 05/M12 Q1015 A3000
OIII 042100Z 29004KT CAVOK 04/M12 Q1015 A3000 NOSIG
OIII 042030Z 00000KT CAVOK 05/M12 Q1015 A3000
OIII 042000Z 09006KT CAVOK 06/M12 Q1016 A3001 NOSIG
OIII 041930Z 09004KT CAVOK 06/M12 Q1016 A3001
OIII 041900Z 00000KT CAVOK 04/M12 Q1016 A3001 NOSIG